Airfield :
LOGIN :

Register | Disclaimer

   EN    FR    IT 

 










Legend :    VFR   Marginal VFR   IFR   Intensive IFR   Very Intensive IFR
Visi :
Ceiling :
>= 8 km
>= 3000ft
5 to 8 km
1000 to 3000 ft
1500m to 5 km
500 to 1000 ft
800 to 1500m
200 to 500 ft
< 800m
< 200 ft
Symbols :   Thunderstorms  Fog  Heavy snow  Heavy precipitations  Wind > 20 kt
SIGMETs :     Misc.  Thunderstorms  Icing  Turbulence  Mountain Waves  Volcanic Ashes






- Airport Elevation : 423 ft
- IATA code : PIS


LFBI - Poitiers

CURRENT METAR :
  • 190130Z AUTO 15005KT CAVOK 00/M01 Q1023 TEMPO 4000 BR

EXPIRED METARs :
  • 190100Z AUTO 18005KT CAVOK 00/M01 Q1024 TEMPO 4000 BR
  • 190030Z AUTO 19004KT CAVOK 00/M01 Q1024 TEMPO 4000 BR
  • 190000Z AUTO 19005KT CAVOK 00/M01 Q1025 NOSIG
  • 182330Z AUTO 17004KT CAVOK 00/M00 Q1025 NOSIG
  • 182300Z AUTO 18003KT 9000 NSC 01/M00 Q1025 TEMPO 3000 BR

TAF AMD TAF LFBI
Valid from the 19 at 00:00 until the 20 at 00:00 UTC


190055Z 1900/1924 18005KT CAVOK
PROB30 1902/1907 4000 BR NSC
BECMG 1905/1907 18010KT



MET'MAP, your aeronautical weather chart ! - Copyright ORBIFLY December 2007 - Disclaimer

ORBIFLY MET'MAP TEAM :

Programming & Development : Alexandra Zaïnal
Concept & original design : Baudouin d'Aumeries
Assistance for programming : Marc-Olivier Méhu
Technical & hardware support : Manuel Goepfert

Contact : metmap@orbifly.com




SOURCES & CREDITS :

   NOAA